sensor_id;sensor_type;location;lat;lon;timestamp;P1;durP1;ratioP1;P2;durP2;ratioP2
54849;SDS011;47660;51.334;12.396;2023-07-20T00:00:57;3.88;;;3.03;;
54849;SDS011;47660;51.334;12.396;2023-07-20T00:03:25;4.28;;;3.10;;
54849;SDS011;47660;51.334;12.396;2023-07-20T00:05:56;6.35;;;3.65;;
54849;SDS011;47660;51.334;12.396;2023-07-20T00:08:26;5.22;;;2.90;;
54849;SDS011;47660;51.334;12.396;2023-07-20T00:10:55;3.22;;;2.65;;
54849;SDS011;47660;51.334;12.396;2023-07-20T00:13:23;3.70;;;2.70;;
54849;SDS011;47660;51.334;12.396;2023-07-20T00:15:49;3.55;;;2.38;;
54849;SDS011;47660;51.334;12.396;2023-07-20T00:18:14;4.57;;;2.60;;
54849;SDS011;47660;51.334;12.396;2023-07-20T00:20:40;4.03;;;2.88;;
54849;SDS011;47660;51.334;12.396;2023-07-20T00:23:05;6.22;;;2.70;;
54849;SDS011;47660;51.334;12.396;2023-07-20T00:25:34;2.75;;;2.13;;
54849;SDS011;47660;51.334;12.396;2023-07-20T00:28:00;3.42;;;2.15;;
54849;SDS011;47660;51.334;12.396;2023-07-20T00:30:27;3.55;;;2.60;;
54849;SDS011;47660;51.334;12.396;2023-07-20T00:32:56;4.35;;;2.28;;
54849;SDS011;47660;51.334;12.396;2023-07-20T00:35:21;4.32;;;2.40;;
54849;SDS011;47660;51.334;12.396;2023-07-20T00:37:46;6.18;;;2.30;;
54849;SDS011;47660;51.334;12.396;2023-07-20T00:40:12;3.78;;;2.30;;
54849;SDS011;47660;51.334;12.396;2023-07-20T00:42:37;3.83;;;2.08;;
54849;SDS011;47660;51.334;12.396;2023-07-20T00:45:03;3.95;;;2.22;;
54849;SDS011;47660;51.334;12.396;2023-07-20T00:47:29;4.50;;;2.65;;
54849;SDS011;47660;51.334;12.396;2023-07-20T00:49:57;3.97;;;2.40;;
54849;SDS011;47660;51.334;12.396;2023-07-20T00:52:23;4.75;;;2.50;;
54849;SDS011;47660;51.334;12.396;2023-07-20T00:54:52;3.90;;;2.70;;
54849;SDS011;47660;51.334;12.396;2023-07-20T00:57:21;4.07;;;2.60;;
54849;SDS011;47660;51.334;12.396;2023-07-20T00:59:52;3.92;;;3.00;;
54849;SDS011;47660;51.334;12.396;2023-07-20T01:02:18;3.75;;;2.55;;
54849;SDS011;47660;51.334;12.396;2023-07-20T01:04:49;2.90;;;2.60;;
54849;SDS011;47660;51.334;12.396;2023-07-20T01:07:30;6.35;;;2.60;;
54849;SDS011;47660;51.334;12.396;2023-07-20T01:12:39;3.28;;;2.40;;
54849;SDS011;47660;51.334;12.396;2023-07-20T01:15:07;4.22;;;3.00;;
54849;SDS011;47660;51.334;12.396;2023-07-20T01:17:33;4.00;;;2.47;;
54849;SDS011;47660;51.334;12.396;2023-07-20T01:19:59;2.78;;;1.90;;
54849;SDS011;47660;51.334;12.396;2023-07-20T01:25:11;3.05;;;2.20;;
54849;SDS011;47660;51.334;12.396;2023-07-20T01:33:08;8.57;;;2.20;;
54849;SDS011;47660;51.334;12.396;2023-07-20T01:35:41;2.70;;;1.83;;
54849;SDS011;47660;51.334;12.396;2023-07-20T01:38:09;3.67;;;2.50;;
54849;SDS011;47660;51.334;12.396;2023-07-20T01:40:38;3.60;;;2.13;;
54849;SDS011;47660;51.334;12.396;2023-07-20T01:43:05;3.10;;;2.22;;
54849;SDS011;47660;51.334;12.396;2023-07-20T01:45:31;4.43;;;2.30;;
54849;SDS011;47660;51.334;12.396;2023-07-20T01:47:56;3.13;;;1.90;;
54849;SDS011;47660;51.334;12.396;2023-07-20T01:50:24;3.60;;;2.13;;
54849;SDS011;47660;51.334;12.396;2023-07-20T01:52:50;2.60;;;2.13;;
54849;SDS011;47660;51.334;12.396;2023-07-20T01:55:21;3.42;;;1.95;;
54849;SDS011;47660;51.334;12.396;2023-07-20T01:57:47;3.83;;;2.10;;
54849;SDS011;47660;51.334;12.396;2023-07-20T02:00:12;2.45;;;1.75;;
54849;SDS011;47660;51.334;12.396;2023-07-20T02:02:38;3.17;;;1.95;;
54849;SDS011;47660;51.334;12.396;2023-07-20T02:05:03;2.58;;;2.17;;
54849;SDS011;47660;51.334;12.396;2023-07-20T02:07:29;3.85;;;2.00;;
54849;SDS011;47660;51.334;12.396;2023-07-20T02:10:01;2.75;;;1.63;;
54849;SDS011;47660;51.334;12.396;2023-07-20T02:12:28;3.67;;;2.13;;
54849;SDS011;47660;51.334;12.396;2023-07-20T02:14:56;4.55;;;2.15;;
54849;SDS011;47660;51.334;12.396;2023-07-20T02:17:21;3.15;;;1.90;;
54849;SDS011;47660;51.334;12.396;2023-07-20T02:19:52;2.30;;;1.83;;
54849;SDS011;47660;51.334;12.396;2023-07-20T02:22:21;2.53;;;1.92;;
54849;SDS011;47660;51.334;12.396;2023-07-20T02:24:49;3.92;;;2.38;;
54849;SDS011;47660;51.334;12.396;2023-07-20T02:27:15;2.78;;;2.38;;
54849;SDS011;47660;51.334;12.396;2023-07-20T02:29:41;2.53;;;2.20;;
54849;SDS011;47660;51.334;12.396;2023-07-20T02:32:07;5.97;;;2.67;;
54849;SDS011;47660;51.334;12.396;2023-07-20T02:34:37;3.15;;;2.20;;
54849;SDS011;47660;51.334;12.396;2023-07-20T02:37:03;3.55;;;2.30;;
54849;SDS011;47660;51.334;12.396;2023-07-20T02:39:31;3.20;;;2.58;;
54849;SDS011;47660;51.334;12.396;2023-07-20T02:41:57;4.25;;;2.35;;
54849;SDS011;47660;51.334;12.396;2023-07-20T02:44:22;3.55;;;2.53;;
54849;SDS011;47660;51.334;12.396;2023-07-20T02:46:50;4.32;;;2.60;;
54849;SDS011;47660;51.334;12.396;2023-07-20T02:49:19;4.80;;;2.60;;
54849;SDS011;47660;51.334;12.396;2023-07-20T02:51:47;4.88;;;2.53;;
54849;SDS011;47660;51.334;12.396;2023-07-20T02:54:13;4.43;;;2.22;;
54849;SDS011;47660;51.334;12.396;2023-07-20T02:56:38;4.18;;;2.33;;
54849;SDS011;47660;51.334;12.396;2023-07-20T02:59:06;3.38;;;2.80;;
54849;SDS011;47660;51.334;12.396;2023-07-20T03:01:34;4.13;;;2.72;;
54849;SDS011;47660;51.334;12.396;2023-07-20T03:03:59;3.75;;;2.40;;
54849;SDS011;47660;51.334;12.396;2023-07-20T03:06:25;4.68;;;2.78;;
54849;SDS011;47660;51.334;12.396;2023-07-20T03:08:52;5.45;;;2.97;;
54849;SDS011;47660;51.334;12.396;2023-07-20T03:11:20;4.68;;;2.97;;
54849;SDS011;47660;51.334;12.396;2023-07-20T03:13:46;5.18;;;2.80;;
54849;SDS011;47660;51.334;12.396;2023-07-20T03:16:18;3.67;;;2.50;;
54849;SDS011;47660;51.334;12.396;2023-07-20T03:18:47;4.80;;;2.72;;
54849;SDS011;47660;51.334;12.396;2023-07-20T03:21:12;3.63;;;2.65;;
54849;SDS011;47660;51.334;12.396;2023-07-20T03:23:40;3.63;;;2.67;;
54849;SDS011;47660;51.334;12.396;2023-07-20T03:26:06;7.15;;;2.90;;
54849;SDS011;47660;51.334;12.396;2023-07-20T03:28:38;4.80;;;3.42;;
54849;SDS011;47660;51.334;12.396;2023-07-20T03:31:04;5.60;;;2.90;;
54849;SDS011;47660;51.334;12.396;2023-07-20T03:33:32;6.00;;;3.13;;
54849;SDS011;47660;51.334;12.396;2023-07-20T03:35:59;7.18;;;3.20;;
54849;SDS011;47660;51.334;12.396;2023-07-20T03:38:25;3.83;;;2.92;;
54849;SDS011;47660;51.334;12.396;2023-07-20T03:40:52;4.00;;;2.75;;
54849;SDS011;47660;51.334;12.396;2023-07-20T03:43:26;4.60;;;2.88;;
54849;SDS011;47660;51.334;12.396;2023-07-20T03:45:52;3.95;;;2.85;;
54849;SDS011;47660;51.334;12.396;2023-07-20T03:48:19;4.22;;;3.33;;
54849;SDS011;47660;51.334;12.396;2023-07-20T03:50:52;5.38;;;2.80;;
54849;SDS011;47660;51.334;12.396;2023-07-20T03:53:18;6.30;;;2.70;;
54849;SDS011;47660;51.334;12.396;2023-07-20T03:55:50;6.72;;;2.70;;
54849;SDS011;47660;51.334;12.396;2023-07-20T03:58:20;5.78;;;2.90;;
54849;SDS011;47660;51.334;12.396;2023-07-20T04:00:49;3.25;;;2.47;;
54849;SDS011;47660;51.334;12.396;2023-07-20T04:03:16;7.97;;;2.70;;
54849;SDS011;47660;51.334;12.396;2023-07-20T04:05:42;4.00;;;2.70;;
54849;SDS011;47660;51.334;12.396;2023-07-20T04:08:08;4.40;;;2.88;;
54849;SDS011;47660;51.334;12.396;2023-07-20T04:10:34;3.78;;;2.60;;
54849;SDS011;47660;51.334;12.396;2023-07-20T04:13:02;5.95;;;2.60;;
54849;SDS011;47660;51.334;12.396;2023-07-20T04:15:27;3.97;;;2.72;;
54849;SDS011;47660;51.334;12.396;2023-07-20T04:17:53;6.95;;;2.90;;
54849;SDS011;47660;51.334;12.396;2023-07-20T04:20:18;5.03;;;2.63;;
54849;SDS011;47660;51.334;12.396;2023-07-20T04:22:44;4.72;;;2.60;;
54849;SDS011;47660;51.334;12.396;2023-07-20T04:25:14;4.05;;;2.40;;
54849;SDS011;47660;51.334;12.396;2023-07-20T04:27:39;4.30;;;2.65;;
54849;SDS011;47660;51.334;12.396;2023-07-20T04:30:06;5.28;;;3.20;;
54849;SDS011;47660;51.334;12.396;2023-07-20T04:32:33;3.90;;;2.85;;
54849;SDS011;47660;51.334;12.396;2023-07-20T04:35:05;4.35;;;2.88;;
54849;SDS011;47660;51.334;12.396;2023-07-20T04:37:32;6.18;;;3.65;;
54849;SDS011;47660;51.334;12.396;2023-07-20T04:39:58;6.85;;;2.92;;
54849;SDS011;47660;51.334;12.396;2023-07-20T04:42:30;3.95;;;3.00;;
54849;SDS011;47660;51.334;12.396;2023-07-20T04:44:57;6.38;;;2.88;;
54849;SDS011;47660;51.334;12.396;2023-07-20T04:47:28;4.63;;;3.00;;
54849;SDS011;47660;51.334;12.396;2023-07-20T04:49:54;3.40;;;2.63;;
54849;SDS011;47660;51.334;12.396;2023-07-20T04:52:19;5.45;;;2.58;;
54849;SDS011;47660;51.334;12.396;2023-07-20T04:54:44;6.30;;;2.63;;
54849;SDS011;47660;51.334;12.396;2023-07-20T04:57:15;4.22;;;2.45;;
54849;SDS011;47660;51.334;12.396;2023-07-20T04:59:41;3.38;;;2.80;;
54849;SDS011;47660;51.334;12.396;2023-07-20T05:02:09;3.42;;;2.38;;
54849;SDS011;47660;51.334;12.396;2023-07-20T05:04:34;6.70;;;2.65;;
54849;SDS011;47660;51.334;12.396;2023-07-20T05:07:00;3.70;;;2.72;;
54849;SDS011;47660;51.334;12.396;2023-07-20T05:09:25;4.38;;;2.70;;
54849;SDS011;47660;51.334;12.396;2023-07-20T05:11:51;6.28;;;2.90;;
54849;SDS011;47660;51.334;12.396;2023-07-20T05:14:21;3.72;;;2.60;;
54849;SDS011;47660;51.334;12.396;2023-07-20T05:16:49;4.88;;;3.00;;
54849;SDS011;47660;51.334;12.396;2023-07-20T05:19:18;5.05;;;1.92;;
54849;SDS011;47660;51.334;12.396;2023-07-20T05:21:43;5.05;;;2.38;;
54849;SDS011;47660;51.334;12.396;2023-07-20T05:24:11;5.65;;;2.28;;
54849;SDS011;47660;51.334;12.396;2023-07-20T05:26:36;6.68;;;2.72;;
54849;SDS011;47660;51.334;12.396;2023-07-20T05:29:02;3.00;;;2.28;;
54849;SDS011;47660;51.334;12.396;2023-07-20T05:31:31;4.85;;;2.65;;
54849;SDS011;47660;51.334;12.396;2023-07-20T05:33:59;5.97;;;2.40;;
54849;SDS011;47660;51.334;12.396;2023-07-20T05:36:26;3.47;;;2.40;;
54849;SDS011;47660;51.334;12.396;2023-07-20T05:38:52;3.75;;;2.60;;
54849;SDS011;47660;51.334;12.396;2023-07-20T05:41:22;5.20;;;2.45;;
54849;SDS011;47660;51.334;12.396;2023-07-20T05:43:48;5.30;;;2.15;;
54849;SDS011;47660;51.334;12.396;2023-07-20T05:46:13;3.53;;;2.30;;
54849;SDS011;47660;51.334;12.396;2023-07-20T05:48:41;7.20;;;2.53;;
54849;SDS011;47660;51.334;12.396;2023-07-20T05:51:06;3.15;;;2.40;;
54849;SDS011;47660;51.334;12.396;2023-07-20T05:53:32;4.57;;;2.40;;
54849;SDS011;47660;51.334;12.396;2023-07-20T05:55:57;4.47;;;2.20;;
54849;SDS011;47660;51.334;12.396;2023-07-20T05:58:23;3.33;;;2.42;;
54849;SDS011;47660;51.334;12.396;2023-07-20T06:00:53;6.53;;;2.75;;
54849;SDS011;47660;51.334;12.396;2023-07-20T06:03:18;3.83;;;2.38;;
54849;SDS011;47660;51.334;12.396;2023-07-20T06:05:46;5.35;;;2.55;;
54849;SDS011;47660;51.334;12.396;2023-07-20T06:08:14;9.27;;;2.45;;
54849;SDS011;47660;51.334;12.396;2023-07-20T06:10:39;3.50;;;2.38;;
54849;SDS011;47660;51.334;12.396;2023-07-20T06:13:05;6.88;;;2.53;;
54849;SDS011;47660;51.334;12.396;2023-07-20T06:15:35;10.10;;;2.40;;
54849;SDS011;47660;51.334;12.396;2023-07-20T06:18:01;3.70;;;2.00;;
54849;SDS011;47660;51.334;12.396;2023-07-20T06:20:26;1.80;;;1.65;;
54849;SDS011;47660;51.334;12.396;2023-07-20T06:22:52;3.00;;;1.90;;
54849;SDS011;47660;51.334;12.396;2023-07-20T06:25:17;1.75;;;1.63;;
54849;SDS011;47660;51.334;12.396;2023-07-20T06:27:45;3.95;;;2.15;;
54849;SDS011;47660;51.334;12.396;2023-07-20T06:30:13;2.45;;;1.98;;
54849;SDS011;47660;51.334;12.396;2023-07-20T06:32:40;5.68;;;2.42;;
54849;SDS011;47660;51.334;12.396;2023-07-20T06:35:09;2.50;;;2.30;;
54849;SDS011;47660;51.334;12.396;2023-07-20T06:37:35;3.92;;;2.20;;
54849;SDS011;47660;51.334;12.396;2023-07-20T06:40:01;4.22;;;2.50;;
54849;SDS011;47660;51.334;12.396;2023-07-20T06:42:30;5.63;;;2.70;;
54849;SDS011;47660;51.334;12.396;2023-07-20T06:44:56;4.57;;;2.50;;
54849;SDS011;47660;51.334;12.396;2023-07-20T06:47:22;3.35;;;2.38;;
54849;SDS011;47660;51.334;12.396;2023-07-20T06:49:50;6.43;;;3.42;;
54849;SDS011;47660;51.334;12.396;2023-07-20T06:52:16;3.60;;;2.88;;
54849;SDS011;47660;51.334;12.396;2023-07-20T06:54:43;4.95;;;3.38;;
54849;SDS011;47660;51.334;12.396;2023-07-20T06:57:12;3.10;;;2.70;;
54849;SDS011;47660;51.334;12.396;2023-07-20T06:59:43;4.07;;;2.85;;
54849;SDS011;47660;51.334;12.396;2023-07-20T07:02:19;4.38;;;2.80;;
54849;SDS011;47660;51.334;12.396;2023-07-20T07:04:44;4.15;;;2.83;;
54849;SDS011;47660;51.334;12.396;2023-07-20T07:07:13;4.53;;;2.97;;
54849;SDS011;47660;51.334;12.396;2023-07-20T07:09:42;4.60;;;3.30;;
54849;SDS011;47660;51.334;12.396;2023-07-20T07:12:07;4.15;;;3.40;;
54849;SDS011;47660;51.334;12.396;2023-07-20T07:14:35;5.57;;;3.00;;
54849;SDS011;47660;51.334;12.396;2023-07-20T07:17:03;4.22;;;3.22;;
54849;SDS011;47660;51.334;12.396;2023-07-20T07:19:29;5.32;;;3.33;;
54849;SDS011;47660;51.334;12.396;2023-07-20T07:21:54;3.70;;;3.40;;
54849;SDS011;47660;51.334;12.396;2023-07-20T07:24:20;5.68;;;3.47;;
54849;SDS011;47660;51.334;12.396;2023-07-20T07:26:47;5.28;;;3.40;;
54849;SDS011;47660;51.334;12.396;2023-07-20T07:29:17;4.60;;;3.40;;
54849;SDS011;47660;51.334;12.396;2023-07-20T07:31:45;6.88;;;3.67;;
54849;SDS011;47660;51.334;12.396;2023-07-20T07:34:13;4.20;;;3.28;;
54849;SDS011;47660;51.334;12.396;2023-07-20T07:36:41;4.35;;;3.17;;
54849;SDS011;47660;51.334;12.396;2023-07-20T07:39:06;5.55;;;3.17;;
54849;SDS011;47660;51.334;12.396;2023-07-20T07:41:32;4.18;;;3.30;;
54849;SDS011;47660;51.334;12.396;2023-07-20T07:44:00;3.17;;;2.88;;
54849;SDS011;47660;51.334;12.396;2023-07-20T07:46:25;4.25;;;3.20;;
54849;SDS011;47660;51.334;12.396;2023-07-20T07:48:51;4.65;;;3.13;;
54849;SDS011;47660;51.334;12.396;2023-07-20T07:51:18;4.60;;;3.65;;
54849;SDS011;47660;51.334;12.396;2023-07-20T07:53:45;4.82;;;3.10;;
54849;SDS011;47660;51.334;12.396;2023-07-20T07:56:11;6.05;;;3.33;;
54849;SDS011;47660;51.334;12.396;2023-07-20T07:58:36;5.57;;;3.38;;
54849;SDS011;47660;51.334;12.396;2023-07-20T08:01:02;6.35;;;3.60;;
54849;SDS011;47660;51.334;12.396;2023-07-20T08:03:28;5.15;;;3.50;;
54849;SDS011;47660;51.334;12.396;2023-07-20T08:05:54;7.82;;;5.75;;
54849;SDS011;47660;51.334;12.396;2023-07-20T08:08:22;7.68;;;4.72;;
54849;SDS011;47660;51.334;12.396;2023-07-20T08:10:50;4.65;;;3.60;;
54849;SDS011;47660;51.334;12.396;2023-07-20T08:13:20;4.68;;;3.88;;
54849;SDS011;47660;51.334;12.396;2023-07-20T08:15:48;5.47;;;3.58;;
54849;SDS011;47660;51.334;12.396;2023-07-20T08:18:16;9.45;;;3.80;;
54849;SDS011;47660;51.334;12.396;2023-07-20T08:20:45;6.15;;;4.15;;
54849;SDS011;47660;51.334;12.396;2023-07-20T08:23:13;4.53;;;3.80;;
54849;SDS011;47660;51.334;12.396;2023-07-20T08:25:39;5.18;;;4.60;;
54849;SDS011;47660;51.334;12.396;2023-07-20T08:28:08;5.50;;;3.75;;
54849;SDS011;47660;51.334;12.396;2023-07-20T08:33:07;7.38;;;4.22;;
54849;SDS011;47660;51.334;12.396;2023-07-20T08:35:38;4.38;;;3.97;;
54849;SDS011;47660;51.334;12.396;2023-07-20T08:38:06;7.70;;;4.63;;
54849;SDS011;47660;51.334;12.396;2023-07-20T08:40:42;5.18;;;3.92;;
54849;SDS011;47660;51.334;12.396;2023-07-20T08:43:12;7.97;;;3.33;;
54849;SDS011;47660;51.334;12.396;2023-07-20T08:45:41;4.13;;;3.25;;
54849;SDS011;47660;51.334;12.396;2023-07-20T08:48:12;4.93;;;3.20;;
54849;SDS011;47660;51.334;12.396;2023-07-20T08:50:38;3.28;;;2.95;;
54849;SDS011;47660;51.334;12.396;2023-07-20T08:53:06;6.07;;;3.10;;
54849;SDS011;47660;51.334;12.396;2023-07-20T08:55:33;3.30;;;3.00;;
54849;SDS011;47660;51.334;12.396;2023-07-20T08:58:02;4.40;;;2.90;;
54849;SDS011;47660;51.334;12.396;2023-07-20T09:00:29;3.53;;;3.22;;
54849;SDS011;47660;51.334;12.396;2023-07-20T09:02:57;4.57;;;3.10;;
54849;SDS011;47660;51.334;12.396;2023-07-20T09:05:25;3.83;;;3.38;;
54849;SDS011;47660;51.334;12.396;2023-07-20T09:07:53;4.30;;;3.10;;
54849;SDS011;47660;51.334;12.396;2023-07-20T09:10:21;4.13;;;2.88;;
54849;SDS011;47660;51.334;12.396;2023-07-20T09:12:47;4.95;;;3.20;;
54849;SDS011;47660;51.334;12.396;2023-07-20T09:15:13;4.55;;;3.13;;
54849;SDS011;47660;51.334;12.396;2023-07-20T09:17:38;3.85;;;2.70;;
54849;SDS011;47660;51.334;12.396;2023-07-20T09:20:05;4.68;;;3.40;;
54849;SDS011;47660;51.334;12.396;2023-07-20T09:22:38;3.65;;;2.67;;
54849;SDS011;47660;51.334;12.396;2023-07-20T09:25:07;4.45;;;3.13;;
54849;SDS011;47660;51.334;12.396;2023-07-20T09:27:45;3.10;;;2.60;;
54849;SDS011;47660;51.334;12.396;2023-07-20T09:30:13;4.68;;;2.70;;
54849;SDS011;47660;51.334;12.396;2023-07-20T09:32:41;4.28;;;2.63;;
54849;SDS011;47660;51.334;12.396;2023-07-20T09:35:22;4.75;;;2.95;;
54849;SDS011;47660;51.334;12.396;2023-07-20T09:40:26;3.83;;;3.15;;
54849;SDS011;47660;51.334;12.396;2023-07-20T09:42:54;5.07;;;3.03;;
54849;SDS011;47660;51.334;12.396;2023-07-20T09:45:35;3.88;;;3.10;;
54849;SDS011;47660;51.334;12.396;2023-07-20T09:48:06;4.53;;;3.10;;
54849;SDS011;47660;51.334;12.396;2023-07-20T09:50:33;3.47;;;2.90;;
54849;SDS011;47660;51.334;12.396;2023-07-20T09:53:04;3.78;;;3.15;;
54849;SDS011;47660;51.334;12.396;2023-07-20T09:55:30;6.50;;;3.50;;
54849;SDS011;47660;51.334;12.396;2023-07-20T09:57:57;6.07;;;3.97;;
54849;SDS011;47660;51.334;12.396;2023-07-20T10:00:24;3.50;;;3.10;;
54849;SDS011;47660;51.334;12.396;2023-07-20T10:02:57;5.25;;;3.63;;
54849;SDS011;47660;51.334;12.396;2023-07-20T10:05:28;9.18;;;4.45;;
54849;SDS011;47660;51.334;12.396;2023-07-20T10:08:06;8.40;;;4.30;;
54849;SDS011;47660;51.334;12.396;2023-07-20T10:10:43;4.90;;;4.07;;
54849;SDS011;47660;51.334;12.396;2023-07-20T10:13:17;6.25;;;4.65;;
54849;SDS011;47660;51.334;12.396;2023-07-20T10:15:50;8.52;;;4.78;;
54849;SDS011;47660;51.334;12.396;2023-07-20T10:18:28;6.80;;;4.78;;
54849;SDS011;47660;51.334;12.396;2023-07-20T10:20:59;6.07;;;4.90;;
54849;SDS011;47660;51.334;12.396;2023-07-20T10:23:26;13.48;;;9.65;;
54849;SDS011;47660;51.334;12.396;2023-07-20T10:25:56;9.18;;;6.18;;
54849;SDS011;47660;51.334;12.396;2023-07-20T10:28:23;7.82;;;5.60;;
54849;SDS011;47660;51.334;12.396;2023-07-20T10:30:49;6.85;;;5.03;;
54849;SDS011;47660;51.334;12.396;2023-07-20T10:33:16;5.70;;;4.03;;
54849;SDS011;47660;51.334;12.396;2023-07-20T10:35:53;5.55;;;3.90;;
54849;SDS011;47660;51.334;12.396;2023-07-20T10:38:18;7.22;;;5.72;;
54849;SDS011;47660;51.334;12.396;2023-07-20T10:40:53;4.72;;;3.47;;
54849;SDS011;47660;51.334;12.396;2023-07-20T10:43:19;3.17;;;2.88;;
54849;SDS011;47660;51.334;12.396;2023-07-20T10:45:48;3.55;;;2.90;;
54849;SDS011;47660;51.334;12.396;2023-07-20T10:48:28;3.08;;;2.38;;
54849;SDS011;47660;51.334;12.396;2023-07-20T10:51:14;2.53;;;2.28;;
54849;SDS011;47660;51.334;12.396;2023-07-20T10:53:45;4.18;;;2.55;;
54849;SDS011;47660;51.334;12.396;2023-07-20T10:56:23;2.50;;;2.05;;
54849;SDS011;47660;51.334;12.396;2023-07-20T10:58:58;3.08;;;2.25;;
54849;SDS011;47660;51.334;12.396;2023-07-20T11:01:28;2.17;;;1.95;;
54849;SDS011;47660;51.334;12.396;2023-07-20T11:03:57;2.05;;;1.85;;
54849;SDS011;47660;51.334;12.396;2023-07-20T11:11:41;2.10;;;1.90;;
54849;SDS011;47660;51.334;12.396;2023-07-20T11:14:08;2.20;;;2.00;;
54849;SDS011;47660;51.334;12.396;2023-07-20T11:16:45;1.67;;;1.58;;
54849;SDS011;47660;51.334;12.396;2023-07-20T11:21:42;2.78;;;2.33;;
54849;SDS011;47660;51.334;12.396;2023-07-20T11:24:09;5.93;;;2.28;;
54849;SDS011;47660;51.334;12.396;2023-07-20T11:26:51;1.80;;;1.70;;
54849;SDS011;47660;51.334;12.396;2023-07-20T11:29:20;2.38;;;1.60;;
54849;SDS011;47660;51.334;12.396;2023-07-20T11:31:48;2.60;;;1.50;;
54849;SDS011;47660;51.334;12.396;2023-07-20T11:34:15;3.05;;;1.48;;
54849;SDS011;47660;51.334;12.396;2023-07-20T11:36:48;2.50;;;1.60;;
54849;SDS011;47660;51.334;12.396;2023-07-20T11:39:18;2.28;;;1.90;;
54849;SDS011;47660;51.334;12.396;2023-07-20T11:41:50;2.80;;;1.77;;
54849;SDS011;47660;51.334;12.396;2023-07-20T11:44:18;2.05;;;1.80;;
54849;SDS011;47660;51.334;12.396;2023-07-20T11:46:59;2.20;;;1.38;;
54849;SDS011;47660;51.334;12.396;2023-07-20T11:49:28;2.38;;;1.90;;
54849;SDS011;47660;51.334;12.396;2023-07-20T11:51:54;2.05;;;1.67;;
54849;SDS011;47660;51.334;12.396;2023-07-20T11:54:21;2.05;;;1.67;;
54849;SDS011;47660;51.334;12.396;2023-07-20T11:56:48;1.92;;;1.42;;
54849;SDS011;47660;51.334;12.396;2023-07-20T11:59:18;1.90;;;1.67;;
54849;SDS011;47660;51.334;12.396;2023-07-20T12:01:44;2.08;;;1.70;;
54849;SDS011;47660;51.334;12.396;2023-07-20T12:04:10;2.30;;;2.03;;
54849;SDS011;47660;51.334;12.396;2023-07-20T12:06:37;1.63;;;1.52;;
54849;SDS011;47660;51.334;12.396;2023-07-20T12:09:03;2.22;;;1.67;;
54849;SDS011;47660;51.334;12.396;2023-07-20T12:11:39;2.22;;;2.03;;
54849;SDS011;47660;51.334;12.396;2023-07-20T12:14:07;2.38;;;1.85;;
54849;SDS011;47660;51.334;12.396;2023-07-20T12:16:34;3.40;;;2.10;;
54849;SDS011;47660;51.334;12.396;2023-07-20T12:19:05;2.50;;;2.30;;
54849;SDS011;47660;51.334;12.396;2023-07-20T12:21:38;2.40;;;2.20;;
54849;SDS011;47660;51.334;12.396;2023-07-20T12:24:09;2.08;;;1.88;;
54849;SDS011;47660;51.334;12.396;2023-07-20T12:26:35;2.38;;;2.17;;
54849;SDS011;47660;51.334;12.396;2023-07-20T12:29:03;2.90;;;2.53;;
54849;SDS011;47660;51.334;12.396;2023-07-20T12:31:36;3.72;;;2.35;;
54849;SDS011;47660;51.334;12.396;2023-07-20T12:34:02;2.20;;;2.00;;
54849;SDS011;47660;51.334;12.396;2023-07-20T12:36:30;2.88;;;1.70;;
54849;SDS011;47660;51.334;12.396;2023-07-20T12:38:58;2.80;;;2.08;;
54849;SDS011;47660;51.334;12.396;2023-07-20T12:41:28;4.38;;;1.55;;
54849;SDS011;47660;51.334;12.396;2023-07-20T12:43:59;1.70;;;1.60;;
54849;SDS011;47660;51.334;12.396;2023-07-20T12:46:26;1.08;;;0.80;;
54849;SDS011;47660;51.334;12.396;2023-07-20T12:48:54;0.95;;;0.90;;
54849;SDS011;47660;51.334;12.396;2023-07-20T12:51:19;0.70;;;0.70;;
54849;SDS011;47660;51.334;12.396;2023-07-20T12:53:44;1.10;;;1.00;;
54849;SDS011;47660;51.334;12.396;2023-07-20T12:56:12;0.80;;;0.80;;
54849;SDS011;47660;51.334;12.396;2023-07-20T12:58:38;0.88;;;0.80;;
54849;SDS011;47660;51.334;12.396;2023-07-20T13:01:03;1.02;;;1.00;;
54849;SDS011;47660;51.334;12.396;2023-07-20T13:03:29;1.65;;;1.25;;
54849;SDS011;47660;51.334;12.396;2023-07-20T13:05:55;1.10;;;0.90;;
54849;SDS011;47660;51.334;12.396;2023-07-20T13:08:20;1.20;;;0.73;;
54849;SDS011;47660;51.334;12.396;2023-07-20T13:10:50;0.82;;;0.82;;
54849;SDS011;47660;51.334;12.396;2023-07-20T13:13:18;1.45;;;1.08;;
54849;SDS011;47660;51.334;12.396;2023-07-20T13:15:44;0.95;;;0.95;;
54849;SDS011;47660;51.334;12.396;2023-07-20T13:18:11;2.78;;;0.80;;
54849;SDS011;47660;51.334;12.396;2023-07-20T13:20:37;0.98;;;0.82;;
54849;SDS011;47660;51.334;12.396;2023-07-20T13:23:02;1.08;;;1.00;;
54849;SDS011;47660;51.334;12.396;2023-07-20T13:25:29;0.95;;;0.90;;
54849;SDS011;47660;51.334;12.396;2023-07-20T13:27:54;1.23;;;0.90;;
54849;SDS011;47660;51.334;12.396;2023-07-20T13:30:20;1.58;;;1.00;;
54849;SDS011;47660;51.334;12.396;2023-07-20T13:32:46;1.13;;;1.02;;
54849;SDS011;47660;51.334;12.396;2023-07-20T13:35:12;1.65;;;1.02;;
54849;SDS011;47660;51.334;12.396;2023-07-20T13:37:37;1.10;;;1.00;;
54849;SDS011;47660;51.334;12.396;2023-07-20T13:40:08;1.40;;;1.20;;
54849;SDS011;47660;51.334;12.396;2023-07-20T13:42:44;1.20;;;1.10;;
54849;SDS011;47660;51.334;12.396;2023-07-20T13:45:24;1.55;;;1.20;;
54849;SDS011;47660;51.334;12.396;2023-07-20T13:47:49;1.80;;;1.27;;
54849;SDS011;47660;51.334;12.396;2023-07-20T13:50:15;1.50;;;1.20;;
54849;SDS011;47660;51.334;12.396;2023-07-20T13:52:40;2.33;;;1.10;;
54849;SDS011;47660;51.334;12.396;2023-07-20T13:55:06;1.60;;;1.40;;
54849;SDS011;47660;51.334;12.396;2023-07-20T13:57:34;1.33;;;1.20;;
54849;SDS011;47660;51.334;12.396;2023-07-20T13:59:59;1.95;;;1.30;;
54849;SDS011;47660;51.334;12.396;2023-07-20T14:02:28;1.30;;;1.20;;
54849;SDS011;47660;51.334;12.396;2023-07-20T14:04:56;2.72;;;1.30;;
54849;SDS011;47660;51.334;12.396;2023-07-20T14:07:22;1.40;;;1.30;;
54849;SDS011;47660;51.334;12.396;2023-07-20T14:09:50;1.70;;;1.60;;
54849;SDS011;47660;51.334;12.396;2023-07-20T14:12:15;1.40;;;1.30;;
54849;SDS011;47660;51.334;12.396;2023-07-20T14:14:41;1.80;;;1.50;;
54849;SDS011;47660;51.334;12.396;2023-07-20T14:17:06;1.52;;;1.42;;
54849;SDS011;47660;51.334;12.396;2023-07-20T14:19:37;1.48;;;1.10;;
54849;SDS011;47660;51.334;12.396;2023-07-20T14:22:07;1.58;;;1.48;;
54849;SDS011;47660;51.334;12.396;2023-07-20T14:24:36;4.32;;;2.08;;
54849;SDS011;47660;51.334;12.396;2023-07-20T14:27:05;1.80;;;1.30;;
54849;SDS011;47660;51.334;12.396;2023-07-20T14:29:31;2.00;;;1.25;;
54849;SDS011;47660;51.334;12.396;2023-07-20T14:31:57;1.88;;;1.50;;
54849;SDS011;47660;51.334;12.396;2023-07-20T14:34:39;1.20;;;1.10;;
54849;SDS011;47660;51.334;12.396;2023-07-20T14:37:17;4.03;;;1.30;;
54849;SDS011;47660;51.334;12.396;2023-07-20T14:39:55;1.35;;;1.25;;
54849;SDS011;47660;51.334;12.396;2023-07-20T14:42:25;1.30;;;1.20;;
54849;SDS011;47660;51.334;12.396;2023-07-20T14:44:54;1.42;;;1.33;;
54849;SDS011;47660;51.334;12.396;2023-07-20T14:47:25;1.80;;;1.05;;
54849;SDS011;47660;51.334;12.396;2023-07-20T14:49:53;1.27;;;1.17;;
54849;SDS011;47660;51.334;12.396;2023-07-20T14:52:19;1.20;;;1.10;;
54849;SDS011;47660;51.334;12.396;2023-07-20T14:54:48;0.98;;;0.95;;
54849;SDS011;47660;51.334;12.396;2023-07-20T14:57:19;1.65;;;1.55;;
54849;SDS011;47660;51.334;12.396;2023-07-20T14:59:48;1.00;;;1.00;;
54849;SDS011;47660;51.334;12.396;2023-07-20T15:02:17;1.50;;;1.40;;